»·PEaware :: DCM2499 KIGM-KSBP

DCM2499 :: KIGM-KSBP

FLIGHT INFORMATION

Flight Status: Arrived
Operator: Unknown
More flights by this operator :: More flights under this callsign
Pilot: Alec D. (17934)
Aircraft: GATES LEARJET LEARJET 35/36
(LJ35)
More flights by this aircraft type
Origin: KIGM Kingman
United States
Destination: KSBP San Luis Co Regl
United States
More flights between these airports :: More routes between these airports
Route: +HEC PMD
File this flight plan on PilotEdge
Remarks:
Altitude:
(Current/Filed)
34,000ft
Speed:
(Current/Filed)
420kts
Departed: 05-Aug-18 07:08 PM
Arrived: 05-Aug-18 08:12 PM
Distance/Time
Traveled:
328nm/1:04
Distance/Time
To Go:
Arrived

Flight Plot

Page will automatically refresh every two minutes.

Flight plan parsing failed; only flown route is shown


Map Options




Map Legend


Flown Route
Filed Route
Departure Airport
Arrival Airport
Navaid (VOR, NDB)
Fix

Horizontal Profiles

Position Reports

Time Latitude Longitude Heading Altitude Ground
Speed
05-Aug-18 18:56 35.261522 -113.940557 314 3451ft 0kts
05-Aug-18 18:57 35.261522 -113.940557 314 3451ft 0kts
05-Aug-18 18:58 35.261522 -113.940557 314 3451ft 0kts
05-Aug-18 18:59 35.261522 -113.940557 314 3451ft 0kts
05-Aug-18 19:00 35.261522 -113.940557 314 3451ft 0kts
05-Aug-18 19:01 35.261522 -113.940557 314 3451ft 0kts
05-Aug-18 19:02 35.261522 -113.940557 314 3451ft 0kts
05-Aug-18 19:03 35.261522 -113.940557 314 3451ft 0kts
05-Aug-18 19:04 35.261522 -113.940557 314 3451ft 0kts
05-Aug-18 19:05 35.261522 -113.940557 314 3451ft 0kts
05-Aug-18 19:06 35.261025 -113.939003 48 3452ft 10kts
05-Aug-18 19:07 35.264340 -113.934864 52 3451ft 15kts
05-Aug-18 19:08 35.265188 -113.932840 130 3452ft 9kts
05-Aug-18 19:09 35.263309 -113.933704 223 3452ft 48kts
05-Aug-18 19:10 35.242350 -113.967008 253 4457ft 167kts
05-Aug-18 19:11 35.235179 -114.019157 260 6281ft 134kts
05-Aug-18 19:12 35.230114 -114.073152 260 7492ft 203kts
05-Aug-18 19:13 35.220759 -114.158687 260 9911ft 273kts
05-Aug-18 19:14 35.208073 -114.254468 256 12245ft 299kts
05-Aug-18 19:15 35.186337 -114.355450 253 14748ft 311kts
05-Aug-18 19:16 35.163837 -114.459469 255 16229ft 317kts
05-Aug-18 19:17 35.145592 -114.561328 257 17134ft 311kts
05-Aug-18 19:18 35.126445 -114.671227 256 19313ft 342kts
05-Aug-18 19:19 35.106114 -114.786691 256 21727ft 354kts
05-Aug-18 19:20 35.084610 -114.907964 256 22771ft 369kts
05-Aug-18 19:21 35.063208 -115.027994 255 22767ft 353kts
05-Aug-18 19:22 35.042368 -115.144064 255 22776ft 351kts
05-Aug-18 19:23 35.021321 -115.260627 255 22783ft 353kts
05-Aug-18 19:24 35.000006 -115.378002 255 22799ft 354kts
05-Aug-18 19:25 34.978330 -115.496634 255 24133ft 367kts
05-Aug-18 19:26 34.955659 -115.620025 255 26492ft 376kts
05-Aug-18 19:27 34.932443 -115.745611 255 28509ft 385kts
05-Aug-18 19:28 34.908868 -115.872398 255 30827ft 380kts
05-Aug-18 19:29 34.885590 -115.996779 254 33073ft 372kts
05-Aug-18 19:30 34.862126 -116.121246 254 33916ft 390kts
05-Aug-18 19:31 34.837603 -116.250760 254 33966ft 395kts
05-Aug-18 19:32 34.812577 -116.382062 254 33961ft 399kts
05-Aug-18 19:33 34.791872 -116.515424 260 33937ft 405kts
05-Aug-18 19:34 34.778565 -116.652546 260 33903ft 409kts
05-Aug-18 19:35 34.767264 -116.767053 260 33890ft 410kts
05-Aug-18 19:36 34.751185 -116.927992 260 33908ft 412kts
05-Aug-18 19:37 34.737183 -117.066389 259 33964ft 412kts
05-Aug-18 19:38 34.725416 -117.181437 259 33990ft 412kts
05-Aug-18 19:39 34.708719 -117.342842 259 33984ft 414kts
05-Aug-18 19:40 34.700520 -117.459233 274 33986ft 421kts
05-Aug-18 19:41 34.725609 -117.598795 278 33983ft 424kts
05-Aug-18 19:42 34.755166 -117.762558 278 33963ft 425kts
05-Aug-18 19:43 34.776172 -117.879465 278 33956ft 425kts
05-Aug-18 19:44 34.801288 -118.020104 277 33956ft 426kts
05-Aug-18 19:45 34.826285 -118.161061 277 33973ft 425kts
05-Aug-18 19:46 34.851005 -118.301461 277 34015ft 424kts
05-Aug-18 19:47 34.875509 -118.441628 277 34069ft 423kts
05-Aug-18 19:48 34.899866 -118.581976 277 34120ft 422kts
05-Aug-18 19:49 34.923945 -118.721739 277 34132ft 422kts
05-Aug-18 19:50 34.947605 -118.859965 277 32125ft 410kts
05-Aug-18 19:51 34.970350 -118.993887 278 29620ft 395kts
05-Aug-18 19:52 34.992136 -119.123074 278 27126ft 384kts
05-Aug-18 19:53 35.013312 -119.249503 278 24624ft 374kts
05-Aug-18 19:54 35.033425 -119.370223 278 22123ft 345kts
05-Aug-18 19:55 35.051564 -119.479884 278 19621ft 318kts
05-Aug-18 19:56 35.068532 -119.583152 278 17113ft 301kts
05-Aug-18 19:57 35.084611 -119.681559 279 14616ft 291kts
05-Aug-18 19:58 35.100272 -119.777868 280 12113ft 285kts
05-Aug-18 19:59 35.115472 -119.871850 281 9690ft 278kts
05-Aug-18 20:00 35.129510 -119.959062 281 9003ft 244kts
05-Aug-18 20:01 35.142222 -120.038336 282 8998ft 231kts
05-Aug-18 20:02 35.154378 -120.114415 282 9008ft 227kts
05-Aug-18 20:03 35.166350 -120.189734 282 9010ft 225kts
05-Aug-18 20:04 35.132588 -120.253053 213 7243ft 255kts
05-Aug-18 20:05 35.071396 -120.297943 223 5237ft 256kts
05-Aug-18 20:06 35.065218 -120.371329 288 4504ft 209kts
05-Aug-18 20:07 35.096874 -120.424876 308 4504ft 186kts
05-Aug-18 20:08 35.127735 -120.475192 308 3711ft 186kts
05-Aug-18 20:09 35.157064 -120.523269 311 2487ft 156kts
05-Aug-18 20:10 35.186267 -120.560055 319 1781ft 139kts
05-Aug-18 20:11 35.210746 -120.593420 302 1079ft 118kts
05-Aug-18 20:12 35.228271 -120.625092 303 417ft 109kts
05-Aug-18 20:13 35.237874 -120.641958 315 215ft 12kts
05-Aug-18 20:14 35.238217 -120.641550 85 215ft 0kts
05-Aug-18 20:15 35.237705 -120.639157 63 215ft 8kts
05-Aug-18 20:16 35.237895 -120.639041 356 215ft 0kts
05-Aug-18 20:17 35.237895 -120.639041 356 215ft 0kts
05-Aug-18 20:18 35.237895 -120.639041 356 215ft 0kts
05-Aug-18 20:19 35.237895 -120.639041 356 215ft 0kts
05-Aug-18 20:20 35.237895 -120.639041 356 215ft 0kts
05-Aug-18 20:21 35.237895 -120.639041 356 215ft 0kts
05-Aug-18 20:22 35.237895 -120.639041 356 215ft 0kts
05-Aug-18 20:23 35.237895 -120.639041 356 215ft 0kts
05-Aug-18 20:24 35.237895 -120.639041 356 215ft 0kts

Navigation Log

Ident Type
Flight plan parsing failed, navigation log unavailable